Terminal Aerodrome Forecast
Issued by NWS Grand Rapids, MI

Home | Current Version | Previous Version | Text Only | Print | Product List | Glossary On
Versions: 1 2 3 4 5 6 7 8 9 10 11 12 13 14 15 16 17 18 19
000
FTUS43 KGRR 281740
TAFGRR
TAF
KGRR 281740Z 2818/2918 18014G22KT P6SM VCSH BKN040
     FM290000 17010KT P6SM SCT150
     FM290800 19008KT 4SM HZ SCT002
     FM291300 21014G24KT P6SM SCT040=

USA.gov is the U.S. government's official web portal to all federal, state and local government web resources and services.